VTI857 VABB-VAAH
Flight info
| Callsign | VTI857 |
|---|---|
| Flight time | 0h 51m |
| Altitude | 33000 |
| Route | ANOLI2A ISRIS G208 APANO APANO1A |
| Aircraft | B78X/H-SDE1E2E3FGHIJ2J3J4J5M1RWXY/LB1D1 |
Departure
| Time | 2026-04-14 15:00 |
|---|---|
| Airport | Chhatrapati Shivaji Maharaj International Airport (VABB) |
Arrival
| Time | 2026-04-14 15:52 |
|---|---|
| Airport | Sardar Vallabh Patel International Airport (VAAH) |
| Time | Latitude | Longitude | Altitude | Speed | Heading |
|---|---|---|---|---|---|
| 2026-04-14 14:25 | 19.09149 | 72.85448 | 39 ft | 0 kts | 359° |
| 2026-04-14 14:43 | 19.09146 | 72.85448 | 39 ft | 2 kts | 359° |
| 2026-04-14 14:44 | 19.09130 | 72.85448 | 39 ft | 2 kts | 359° |
| 2026-04-14 14:44 | 19.09113 | 72.85449 | 35 ft | 2 kts | 359° |
| 2026-04-14 14:44 | 19.09096 | 72.85448 | 37 ft | 2 kts | 70° |
| 2026-04-14 14:44 | 19.09093 | 72.85432 | 34 ft | 2 kts | 104° |
| 2026-04-14 14:45 | 19.09097 | 72.85415 | 34 ft | 2 kts | 91° |
| 2026-04-14 14:45 | 19.09097 | 72.85406 | 37 ft | 0 kts | 89° |
| 2026-04-14 14:48 | 19.09097 | 72.85412 | 34 ft | 2 kts | 89° |
| 2026-04-14 14:48 | 19.09097 | 72.85431 | 35 ft | 3 kts | 89° |
| 2026-04-14 14:48 | 19.09098 | 72.85463 | 36 ft | 5 kts | 90° |
| 2026-04-14 14:49 | 19.09098 | 72.85507 | 39 ft | 7 kts | 90° |
| 2026-04-14 14:49 | 19.09094 | 72.85560 | 39 ft | 7 kts | 104° |
| 2026-04-14 14:49 | 19.09070 | 72.85593 | 39 ft | 5 kts | 136° |
| 2026-04-14 14:49 | 19.09040 | 72.85627 | 39 ft | 6 kts | 125° |
| 2026-04-14 14:50 | 19.09030 | 72.85669 | 38 ft | 6 kts | 95° |
| 2026-04-14 14:50 | 19.09027 | 72.85719 | 38 ft | 8 kts | 93° |
| 2026-04-14 14:50 | 19.09026 | 72.85781 | 38 ft | 9 kts | 90° |
| 2026-04-14 14:50 | 19.09027 | 72.85854 | 38 ft | 11 kts | 88° |
| 2026-04-14 14:51 | 19.09029 | 72.85938 | 38 ft | 12 kts | 88° |
| 2026-04-14 14:51 | 19.09030 | 72.86034 | 38 ft | 14 kts | 89° |
| 2026-04-14 14:51 | 19.09032 | 72.86138 | 38 ft | 15 kts | 88° |
| 2026-04-14 14:51 | 19.09035 | 72.86252 | 38 ft | 16 kts | 89° |
| 2026-04-14 14:52 | 19.09036 | 72.86374 | 37 ft | 17 kts | 90° |
| 2026-04-14 14:52 | 19.09038 | 72.86504 | 36 ft | 19 kts | 88° |
| 2026-04-14 14:52 | 19.09040 | 72.86644 | 37 ft | 17 kts | 89° |
| 2026-04-14 14:52 | 19.09044 | 72.86762 | 39 ft | 16 kts | 88° |
| 2026-04-14 14:53 | 19.09045 | 72.86880 | 39 ft | 16 kts | 90° |
| 2026-04-14 14:53 | 19.09044 | 72.87004 | 39 ft | 17 kts | 90° |
| 2026-04-14 14:53 | 19.09045 | 72.87136 | 39 ft | 18 kts | 89° |
| 2026-04-14 14:53 | 19.09053 | 72.87274 | 39 ft | 19 kts | 88° |
| 2026-04-14 14:54 | 19.09049 | 72.87402 | 39 ft | 13 kts | 101° |
| 2026-04-14 14:54 | 19.09018 | 72.87440 | 39 ft | 0 kts | 151° |
| 2026-04-14 14:57 | 19.09013 | 72.87442 | 38 ft | 2 kts | 154° |
| 2026-04-14 14:57 | 19.08992 | 72.87448 | 38 ft | 4 kts | 167° |
| 2026-04-14 14:58 | 19.08952 | 72.87453 | 38 ft | 7 kts | 178° |
| 2026-04-14 14:58 | 19.08905 | 72.87436 | 36 ft | 6 kts | 215° |
| 2026-04-14 14:58 | 19.08887 | 72.87407 | 38 ft | 4 kts | 247° |
| 2026-04-14 14:58 | 19.08882 | 72.87377 | 38 ft | 5 kts | 260° |
| 2026-04-14 14:59 | 19.08880 | 72.87338 | 39 ft | 7 kts | 268° |
| 2026-04-14 14:59 | 19.08878 | 72.87176 | 38 ft | 44 kts | 269° |
| 2026-04-14 14:59 | 19.08869 | 72.86657 | 37 ft | 97 kts | 269° |
| 2026-04-14 14:59 | 19.08857 | 72.85776 | 37 ft | 141 kts | 269° |
| 2026-04-14 15:00 | 19.08839 | 72.84640 | 223 ft | 160 kts | 274° |
| 2026-04-14 15:00 | 19.08855 | 72.83415 | 587 ft | 176 kts | 275° |
| 2026-04-14 15:00 | 19.08824 | 72.82005 | 982 ft | 208 kts | 273° |
| 2026-04-14 15:00 | 19.08754 | 72.80427 | 2044 ft | 214 kts | 273° |
| 2026-04-14 15:01 | 19.08674 | 72.78817 | 3106 ft | 224 kts | 273° |
| 2026-04-14 15:01 | 19.08600 | 72.77146 | 4123 ft | 231 kts | 272° |
| 2026-04-14 15:01 | 19.08703 | 72.75523 | 5436 ft | 221 kts | 290° |
| 2026-04-14 15:01 | 19.09666 | 72.74215 | 6028 ft | 244 kts | 331° |
| 2026-04-14 15:02 | 19.11380 | 72.73888 | 6682 ft | 266 kts | 8° |
| 2026-04-14 15:02 | 19.13246 | 72.74333 | 7378 ft | 282 kts | 16° |
| 2026-04-14 15:02 | 19.15198 | 72.74782 | 7849 ft | 288 kts | 10° |
| 2026-04-14 15:02 | 19.17211 | 72.74872 | 7981 ft | 291 kts | 0° |
| 2026-04-14 15:03 | 19.19221 | 72.74724 | 7977 ft | 289 kts | 357° |
| 2026-04-14 15:03 | 19.21223 | 72.74518 | 7979 ft | 289 kts | 356° |
| 2026-04-14 15:03 | 19.23229 | 72.74335 | 7984 ft | 289 kts | 358° |
| 2026-04-14 15:03 | 19.25210 | 72.74231 | 7984 ft | 289 kts | 360° |
| 2026-04-14 15:04 | 19.27232 | 72.74144 | 7962 ft | 289 kts | 359° |
| 2026-04-14 15:04 | 19.29236 | 72.74033 | 7969 ft | 291 kts | 359° |
| 2026-04-14 15:04 | 19.31236 | 72.74165 | 7997 ft | 288 kts | 12° |
| 2026-04-14 15:04 | 19.33232 | 72.74487 | 7969 ft | 288 kts | 9° |
| 2026-04-14 15:05 | 19.35230 | 72.74761 | 7975 ft | 290 kts | 9° |
| 2026-04-14 15:05 | 19.37223 | 72.75059 | 7973 ft | 290 kts | 10° |
| 2026-04-14 15:05 | 19.39214 | 72.75374 | 7969 ft | 290 kts | 10° |
| 2026-04-14 15:05 | 19.41185 | 72.75680 | 7977 ft | 290 kts | 10° |
| 2026-04-14 15:06 | 19.43183 | 72.75985 | 7977 ft | 290 kts | 10° |
| 2026-04-14 15:06 | 19.45176 | 72.76289 | 8038 ft | 286 kts | 10° |
| 2026-04-14 15:06 | 19.47153 | 72.76591 | 8580 ft | 295 kts | 10° |
| 2026-04-14 15:06 | 19.49171 | 72.76904 | 9104 ft | 293 kts | 10° |
| 2026-04-14 15:07 | 19.51221 | 72.77222 | 9649 ft | 296 kts | 10° |
| 2026-04-14 15:07 | 19.53283 | 72.77538 | 10142 ft | 302 kts | 10° |
| 2026-04-14 15:07 | 19.55341 | 72.77854 | 10652 ft | 303 kts | 9° |
| 2026-04-14 15:07 | 19.57447 | 72.78178 | 11183 ft | 313 kts | 9° |
| 2026-04-14 15:08 | 19.59668 | 72.78523 | 11817 ft | 333 kts | 9° |
| 2026-04-14 15:08 | 19.62002 | 72.78890 | 12437 ft | 353 kts | 9° |
| 2026-04-14 15:08 | 19.64509 | 72.79284 | 13004 ft | 374 kts | 9° |
| 2026-04-14 15:08 | 19.67118 | 72.79687 | 13818 ft | 383 kts | 9° |
| 2026-04-14 15:09 | 19.69775 | 72.80095 | 14668 ft | 389 kts | 9° |
| 2026-04-14 15:09 | 19.72474 | 72.80512 | 15534 ft | 395 kts | 9° |
| 2026-04-14 15:09 | 19.75211 | 72.80934 | 16379 ft | 401 kts | 9° |
| 2026-04-14 15:09 | 19.77990 | 72.81363 | 17231 ft | 406 kts | 9° |
| 2026-04-14 15:10 | 19.80758 | 72.81790 | 18026 ft | 411 kts | 9° |
| 2026-04-14 15:10 | 19.83537 | 72.82218 | 18713 ft | 417 kts | 9° |
| 2026-04-14 15:10 | 19.86422 | 72.82664 | 19387 ft | 421 kts | 9° |
| 2026-04-14 15:10 | 19.89343 | 72.83115 | 20069 ft | 427 kts | 9° |
| 2026-04-14 15:11 | 19.92294 | 72.83571 | 20756 ft | 431 kts | 9° |
| 2026-04-14 15:11 | 19.95278 | 72.84032 | 21427 ft | 436 kts | 9° |
| 2026-04-14 15:11 | 19.98301 | 72.84499 | 22092 ft | 441 kts | 9° |
| 2026-04-14 15:11 | 20.01344 | 72.84970 | 22723 ft | 445 kts | 8° |
| 2026-04-14 15:12 | 20.04432 | 72.85448 | 23335 ft | 450 kts | 8° |
| 2026-04-14 15:12 | 20.07505 | 72.85923 | 23853 ft | 454 kts | 8° |
| 2026-04-14 15:12 | 20.10625 | 72.86309 | 24366 ft | 458 kts | 6° |
| 2026-04-14 15:12 | 20.13799 | 72.86720 | 24878 ft | 461 kts | 7° |
| 2026-04-14 15:13 | 20.16989 | 72.87171 | 25370 ft | 465 kts | 7° |
| 2026-04-14 15:13 | 20.20213 | 72.87586 | 25873 ft | 468 kts | 6° |
| 2026-04-14 15:13 | 20.23460 | 72.87977 | 26368 ft | 471 kts | 6° |
| 2026-04-14 15:13 | 20.26730 | 72.88390 | 26869 ft | 475 kts | 7° |
| 2026-04-14 15:14 | 20.30023 | 72.88823 | 27347 ft | 478 kts | 7° |
| 2026-04-14 15:14 | 20.33289 | 72.89245 | 27801 ft | 481 kts | 6° |
| 2026-04-14 15:14 | 20.36618 | 72.89664 | 28387 ft | 481 kts | 6° |
| 2026-04-14 15:14 | 20.39934 | 72.90083 | 29106 ft | 478 kts | 6° |
| 2026-04-14 15:15 | 20.43232 | 72.90507 | 29819 ft | 476 kts | 6° |
| 2026-04-14 15:15 | 20.46516 | 72.90929 | 30413 ft | 474 kts | 6° |
| 2026-04-14 15:15 | 20.49786 | 72.91345 | 30978 ft | 473 kts | 6° |
| 2026-04-14 15:15 | 20.53046 | 72.91760 | 31539 ft | 471 kts | 6° |
| 2026-04-14 15:16 | 20.56299 | 72.92177 | 32081 ft | 470 kts | 6° |
| 2026-04-14 15:16 | 20.59504 | 72.92589 | 32607 ft | 470 kts | 6° |
| 2026-04-14 15:16 | 20.62762 | 72.93008 | 32853 ft | 474 kts | 6° |
| 2026-04-14 15:16 | 20.66018 | 72.93427 | 32850 ft | 467 kts | 5° |
| 2026-04-14 15:17 | 20.72474 | 72.94252 | 32853 ft | 468 kts | 5° |
| 2026-04-14 15:17 | 20.78940 | 72.94838 | 32846 ft | 465 kts | 1° |
| 2026-04-14 15:18 | 20.85405 | 72.95092 | 32843 ft | 465 kts | 1° |
| 2026-04-14 15:18 | 20.91870 | 72.95391 | 32839 ft | 465 kts | 1° |
| 2026-04-14 15:19 | 20.98276 | 72.95665 | 32835 ft | 464 kts | 1° |
| 2026-04-14 15:19 | 21.04736 | 72.95953 | 32820 ft | 464 kts | 1° |
| 2026-04-14 15:20 | 21.07954 | 72.96096 | 32557 ft | 462 kts | 1° |
| 2026-04-14 15:20 | 21.11168 | 72.96235 | 32161 ft | 464 kts | 1° |
| 2026-04-14 15:20 | 21.14397 | 72.96376 | 31772 ft | 465 kts | 1° |
| 2026-04-14 15:20 | 21.17593 | 72.96519 | 31388 ft | 466 kts | 1° |
| 2026-04-14 15:21 | 21.20834 | 72.96664 | 31012 ft | 467 kts | 1° |
| 2026-04-14 15:21 | 21.24077 | 72.96808 | 30637 ft | 467 kts | 1° |
| 2026-04-14 15:21 | 21.27329 | 72.96951 | 30260 ft | 468 kts | 1° |
| 2026-04-14 15:21 | 21.30570 | 72.97095 | 29875 ft | 468 kts | 1° |
| 2026-04-14 15:22 | 21.33840 | 72.97241 | 29411 ft | 469 kts | 1° |
| 2026-04-14 15:22 | 21.37104 | 72.97387 | 28922 ft | 470 kts | 1° |
| 2026-04-14 15:22 | 21.40379 | 72.97532 | 28410 ft | 471 kts | 1° |
| 2026-04-14 15:22 | 21.43615 | 72.97676 | 27902 ft | 473 kts | 1° |
| 2026-04-14 15:23 | 21.46906 | 72.97823 | 27359 ft | 474 kts | 1° |
| 2026-04-14 15:23 | 21.50207 | 72.97971 | 26810 ft | 476 kts | 1° |
| 2026-04-14 15:23 | 21.53525 | 72.98120 | 26229 ft | 478 kts | 1° |
| 2026-04-14 15:23 | 21.56854 | 72.98232 | 25618 ft | 479 kts | 357° |
| 2026-04-14 15:24 | 21.60142 | 72.97833 | 25225 ft | 472 kts | 347° |
| 2026-04-14 15:24 | 21.63304 | 72.96961 | 24869 ft | 468 kts | 343° |
| 2026-04-14 15:24 | 21.66422 | 72.95995 | 24516 ft | 464 kts | 343° |
| 2026-04-14 15:24 | 21.69519 | 72.95053 | 24163 ft | 462 kts | 344° |
| 2026-04-14 15:25 | 21.72566 | 72.94182 | 23819 ft | 460 kts | 345° |
| 2026-04-14 15:25 | 21.75656 | 72.93297 | 23463 ft | 457 kts | 344° |
| 2026-04-14 15:25 | 21.78721 | 72.92389 | 23071 ft | 455 kts | 343° |
| 2026-04-14 15:25 | 21.81767 | 72.91482 | 22690 ft | 453 kts | 344° |
| 2026-04-14 15:26 | 21.84798 | 72.90596 | 22239 ft | 451 kts | 344° |
| 2026-04-14 15:26 | 21.87827 | 72.89718 | 21461 ft | 450 kts | 344° |
| 2026-04-14 15:26 | 21.90827 | 72.88835 | 20697 ft | 444 kts | 344° |
| 2026-04-14 15:26 | 21.93792 | 72.87957 | 19941 ft | 439 kts | 345° |
| 2026-04-14 15:27 | 21.96718 | 72.87096 | 19201 ft | 434 kts | 345° |
| 2026-04-14 15:27 | 21.99574 | 72.86259 | 18467 ft | 428 kts | 345° |
| 2026-04-14 15:27 | 22.02428 | 72.85419 | 17712 ft | 423 kts | 345° |
| 2026-04-14 15:27 | 22.05240 | 72.84588 | 16997 ft | 415 kts | 345° |
| 2026-04-14 15:28 | 22.08005 | 72.83771 | 16304 ft | 408 kts | 345° |
| 2026-04-14 15:28 | 22.10722 | 72.82970 | 15616 ft | 402 kts | 345° |
| 2026-04-14 15:28 | 22.13398 | 72.82181 | 14936 ft | 396 kts | 345° |
| 2026-04-14 15:28 | 22.16037 | 72.81401 | 14269 ft | 391 kts | 345° |
| 2026-04-14 15:29 | 22.18664 | 72.80627 | 13610 ft | 391 kts | 345° |
| 2026-04-14 15:29 | 22.21275 | 72.79857 | 12917 ft | 385 kts | 345° |
| 2026-04-14 15:29 | 22.23833 | 72.79098 | 12340 ft | 377 kts | 345° |
| 2026-04-14 15:29 | 22.26313 | 72.78367 | 11833 ft | 376 kts | 345° |
| 2026-04-14 15:30 | 22.28858 | 72.77644 | 11294 ft | 377 kts | 345° |
| 2026-04-14 15:30 | 22.31342 | 72.76934 | 11083 ft | 362 kts | 345° |
| 2026-04-14 15:30 | 22.33745 | 72.76235 | 10953 ft | 357 kts | 345° |
| 2026-04-14 15:30 | 22.36178 | 72.75533 | 10825 ft | 369 kts | 345° |
| 2026-04-14 15:31 | 22.38691 | 72.74818 | 10652 ft | 375 kts | 345° |
| 2026-04-14 15:31 | 22.41182 | 72.74102 | 10487 ft | 365 kts | 345° |
| 2026-04-14 15:31 | 22.43639 | 72.73389 | 10110 ft | 370 kts | 345° |
| 2026-04-14 15:31 | 22.46089 | 72.72679 | 9998 ft | 369 kts | 345° |
| 2026-04-14 15:32 | 22.48590 | 72.71961 | 9985 ft | 371 kts | 345° |
| 2026-04-14 15:32 | 22.51089 | 72.71241 | 9984 ft | 377 kts | 345° |
| 2026-04-14 15:32 | 22.53561 | 72.70526 | 9982 ft | 371 kts | 345° |
| 2026-04-14 15:32 | 22.56065 | 72.69803 | 9983 ft | 368 kts | 345° |
| 2026-04-14 15:33 | 22.58571 | 72.69078 | 9980 ft | 373 kts | 345° |
| 2026-04-14 15:33 | 22.61068 | 72.68350 | 9866 ft | 374 kts | 344° |
| 2026-04-14 15:33 | 22.63548 | 72.67622 | 9630 ft | 362 kts | 344° |
| 2026-04-14 15:33 | 22.65879 | 72.66931 | 9376 ft | 344 kts | 344° |
| 2026-04-14 15:34 | 22.68117 | 72.66269 | 9276 ft | 323 kts | 344° |
| 2026-04-14 15:34 | 22.70222 | 72.65650 | 9169 ft | 304 kts | 344° |
| 2026-04-14 15:34 | 22.72193 | 72.65070 | 9092 ft | 281 kts | 344° |
| 2026-04-14 15:34 | 22.74001 | 72.64537 | 8990 ft | 259 kts | 343° |
| 2026-04-14 15:35 | 22.75685 | 72.64040 | 8812 ft | 244 kts | 343° |
| 2026-04-14 15:35 | 22.77298 | 72.63564 | 8478 ft | 238 kts | 343° |
| 2026-04-14 15:35 | 22.78895 | 72.63094 | 8085 ft | 236 kts | 344° |
| 2026-04-14 15:35 | 22.80475 | 72.62631 | 7706 ft | 235 kts | 344° |
| 2026-04-14 15:36 | 22.82050 | 72.62169 | 7321 ft | 234 kts | 344° |
| 2026-04-14 15:36 | 22.83591 | 72.61718 | 6961 ft | 233 kts | 344° |
| 2026-04-14 15:36 | 22.85153 | 72.61267 | 6593 ft | 232 kts | 345° |
| 2026-04-14 15:36 | 22.86712 | 72.60827 | 6240 ft | 231 kts | 347° |
| 2026-04-14 15:37 | 22.88305 | 72.60875 | 5904 ft | 234 kts | 17° |
| 2026-04-14 15:37 | 22.89677 | 72.61808 | 5565 ft | 236 kts | 44° |
| 2026-04-14 15:37 | 22.90833 | 72.63077 | 5169 ft | 236 kts | 47° |
| 2026-04-14 15:37 | 22.91972 | 72.64359 | 4800 ft | 236 kts | 47° |
| 2026-04-14 15:38 | 22.93124 | 72.65631 | 4425 ft | 236 kts | 46° |
| 2026-04-14 15:38 | 22.94279 | 72.66893 | 4069 ft | 235 kts | 46° |
| 2026-04-14 15:38 | 22.95408 | 72.68132 | 3724 ft | 234 kts | 46° |
| 2026-04-14 15:38 | 22.96549 | 72.69384 | 3371 ft | 233 kts | 46° |
| 2026-04-14 15:39 | 22.97685 | 72.70627 | 3038 ft | 231 kts | 46° |
| 2026-04-14 15:39 | 22.98810 | 72.71861 | 2688 ft | 229 kts | 45° |
| 2026-04-14 15:39 | 22.99904 | 72.73057 | 2469 ft | 215 kts | 45° |
| 2026-04-14 15:39 | 23.00922 | 72.74171 | 2278 ft | 200 kts | 45° |
| 2026-04-14 15:40 | 23.01872 | 72.75203 | 2075 ft | 187 kts | 44° |
| 2026-04-14 15:40 | 23.02788 | 72.76163 | 2007 ft | 184 kts | 44° |
| 2026-04-14 15:40 | 23.03701 | 72.77125 | 1996 ft | 179 kts | 44° |
| 2026-04-14 15:40 | 23.04573 | 72.78050 | 1996 ft | 178 kts | 44° |
| 2026-04-14 15:41 | 23.05444 | 72.78978 | 1992 ft | 177 kts | 44° |
| 2026-04-14 15:41 | 23.06325 | 72.79912 | 1996 ft | 176 kts | 44° |
| 2026-04-14 15:41 | 23.07204 | 72.80847 | 1990 ft | 176 kts | 44° |
| 2026-04-14 15:41 | 23.08082 | 72.81781 | 1993 ft | 177 kts | 44° |
| 2026-04-14 15:42 | 23.08962 | 72.82717 | 1991 ft | 177 kts | 44° |
| 2026-04-14 15:42 | 23.09843 | 72.83655 | 1993 ft | 178 kts | 44° |
| 2026-04-14 15:42 | 23.10727 | 72.84594 | 1994 ft | 177 kts | 44° |
| 2026-04-14 15:42 | 23.11596 | 72.85518 | 1987 ft | 177 kts | 44° |
| 2026-04-14 15:43 | 23.12481 | 72.86461 | 1988 ft | 179 kts | 44° |
| 2026-04-14 15:43 | 23.13365 | 72.87403 | 1991 ft | 178 kts | 44° |
| 2026-04-14 15:43 | 23.14251 | 72.88345 | 1993 ft | 181 kts | 44° |
| 2026-04-14 15:43 | 23.15173 | 72.89256 | 1952 ft | 178 kts | 34° |
| 2026-04-14 15:44 | 23.16321 | 72.89490 | 1844 ft | 165 kts | 349° |
| 2026-04-14 15:44 | 23.17313 | 72.88915 | 1830 ft | 162 kts | 318° |
| 2026-04-14 15:44 | 23.18090 | 72.88043 | 1956 ft | 163 kts | 315° |
| 2026-04-14 15:44 | 23.18885 | 72.87183 | 1997 ft | 163 kts | 316° |
| 2026-04-14 15:45 | 23.19707 | 72.86308 | 1996 ft | 163 kts | 316° |
| 2026-04-14 15:45 | 23.20496 | 72.85469 | 1991 ft | 156 kts | 315° |
| 2026-04-14 15:45 | 23.21290 | 72.84622 | 2004 ft | 164 kts | 316° |
| 2026-04-14 15:45 | 23.22090 | 72.83769 | 1993 ft | 164 kts | 316° |
| 2026-04-14 15:46 | 23.22878 | 72.82931 | 1991 ft | 155 kts | 316° |
| 2026-04-14 15:46 | 23.23659 | 72.82098 | 1985 ft | 154 kts | 316° |
| 2026-04-14 15:46 | 23.24227 | 72.81119 | 1883 ft | 157 kts | 282° |
| 2026-04-14 15:46 | 23.23875 | 72.80058 | 1759 ft | 161 kts | 230° |
| 2026-04-14 15:47 | 23.22818 | 72.79546 | 1795 ft | 166 kts | 206° |
| 2026-04-14 15:47 | 23.21742 | 72.79047 | 1991 ft | 176 kts | 208° |
| 2026-04-14 15:47 | 23.20643 | 72.78624 | 1995 ft | 171 kts | 206° |
| 2026-04-14 15:47 | 23.19539 | 72.78204 | 1991 ft | 161 kts | 206° |
| 2026-04-14 15:48 | 23.18461 | 72.77794 | 1992 ft | 163 kts | 206° |
| 2026-04-14 15:48 | 23.17462 | 72.77250 | 1939 ft | 165 kts | 225° |
| 2026-04-14 15:48 | 23.16830 | 72.76286 | 1621 ft | 155 kts | 243° |
| 2026-04-14 15:48 | 23.16365 | 72.75229 | 1342 ft | 154 kts | 254° |
| 2026-04-14 15:49 | 23.16018 | 72.74124 | 1056 ft | 154 kts | 255° |
| 2026-04-14 15:49 | 23.15666 | 72.73031 | 1004 ft | 153 kts | 255° |
| 2026-04-14 15:49 | 23.15258 | 72.71966 | 989 ft | 155 kts | 248° |
| 2026-04-14 15:49 | 23.14682 | 72.70968 | 956 ft | 160 kts | 231° |
| 2026-04-14 15:50 | 23.13921 | 72.70131 | 1000 ft | 162 kts | 231° |
| 2026-04-14 15:50 | 23.13166 | 72.69258 | 997 ft | 159 kts | 230° |
| 2026-04-14 15:50 | 23.12376 | 72.68401 | 999 ft | 158 kts | 229° |
| 2026-04-14 15:50 | 23.11579 | 72.67543 | 925 ft | 165 kts | 229° |
| 2026-04-14 15:51 | 23.10785 | 72.66686 | 742 ft | 159 kts | 227° |
| 2026-04-14 15:51 | 23.10006 | 72.65850 | 553 ft | 158 kts | 225° |
| 2026-04-14 15:51 | 23.09239 | 72.65031 | 326 ft | 157 kts | 225° |
| 2026-04-14 15:51 | 23.08469 | 72.64251 | 210 ft | 136 kts | 220° |
| 2026-04-14 15:52 | 23.07945 | 72.63691 | 208 ft | 66 kts | 226° |
| 2026-04-14 15:52 | 23.07828 | 72.63547 | 199 ft | 6 kts | 238° |
| 2026-04-14 15:52 | 23.07819 | 72.63518 | 210 ft | 1 kts | 264° |
| 2026-04-14 15:52 | 23.07820 | 72.63511 | 208 ft | 1 kts | 276° |
| 2026-04-14 15:53 | 23.07826 | 72.63493 | 208 ft | 3 kts | 292° |
| 2026-04-14 15:53 | 23.07845 | 72.63461 | 208 ft | 7 kts | 305° |
| 2026-04-14 15:53 | 23.07877 | 72.63402 | 204 ft | 9 kts | 287° |
| 2026-04-14 15:53 | 23.07862 | 72.63349 | 211 ft | 7 kts | 237° |
| 2026-04-14 15:54 | 23.07787 | 72.63257 | 208 ft | 10 kts | 226° |
| 2026-04-14 15:54 | 23.07732 | 72.63202 | 212 ft | 11 kts | 223° |
| 2026-04-14 15:54 | 23.07675 | 72.63141 | 210 ft | 12 kts | 225° |
| 2026-04-14 15:55 | 23.07610 | 72.63071 | 212 ft | 15 kts | 224° |
| 2026-04-14 15:55 | 23.07524 | 72.62982 | 210 ft | 18 kts | 223° |
| 2026-04-14 15:55 | 23.07470 | 72.62905 | 208 ft | 10 kts | 254° |
| 2026-04-14 15:55 | 23.07483 | 72.62854 | 199 ft | 6 kts | 303° |
| 2026-04-14 15:56 | 23.07511 | 72.62816 | 204 ft | 8 kts | 311° |
| 2026-04-14 15:56 | 23.07535 | 72.62766 | 209 ft | 6 kts | 272° |
| 2026-04-14 15:56 | 23.07512 | 72.62727 | 205 ft | 8 kts | 231° |
| 2026-04-14 15:56 | 23.07472 | 72.62678 | 207 ft | 10 kts | 229° |
| 2026-04-14 15:57 | 23.07441 | 72.62640 | 204 ft | 4 kts | 231° |
| 2026-04-14 15:57 | 23.07438 | 72.62624 | 205 ft | 0 kts | 264° |
| 2026-04-14 15:57 | 23.07439 | 72.62611 | 202 ft | 2 kts | 278° |
| 2026-04-14 15:57 | 23.07446 | 72.62599 | 197 ft | 3 kts | 297° |
| 2026-04-14 15:58 | 23.07460 | 72.62580 | 204 ft | 4 kts | 308° |
| 2026-04-14 15:58 | 23.07466 | 72.62570 | 202 ft | 2 kts | 305° |
| 2026-04-14 15:58 | 23.07470 | 72.62566 | 202 ft | 0 kts | 312° |
| 2026-04-14 15:58 | 23.07468 | 72.62570 | 202 ft | 3 kts | 320° |
| 2026-04-14 15:59 | 23.07447 | 72.62588 | 203 ft | 0 kts | 324° |
| 2026-04-14 15:59 | 23.07449 | 72.62584 | 204 ft | 2 kts | 319° |
| 2026-04-14 15:59 | 23.07464 | 72.62570 | 202 ft | 3 kts | 319° |
| 2026-04-14 15:59 | 23.07468 | 72.62567 | 202 ft | 0 kts | 319° |